Time;durP1;ratioP1;P1;durP2;ratioP2;P2;SDS_P1;SDS_P2;PMS_P1;PMS_P2;Temp;Humidity;BMP_temperature;BMP_pressure;BME280_temperature;BME280_humidity;BME280_pressure;Samples;Min_cycle;Max_cycle;Signal;HPM_P1;HPM_P2
2022/11/04 00:01:56;;;;;;;12.13;7.67;;;;;;;10.05;93.02;99819.80;1707978;83;21039;-79
2022/11/04 00:04:25;;;;;;;13.13;9.50;;;;;;;10.09;92.68;99824.30;1721103;82;21530;-81
2022/11/04 00:06:53;;;;;;;10.35;7.60;;;;;;;10.04;92.99;99813.67;1694356;82;21059;-81
2022/11/04 00:09:22;;;;;;;12.95;8.65;;;;;;;10.06;93.41;99820.63;1727663;82;21027;-79
2022/11/04 00:14:35;;;;;;;12.00;7.87;;;;;;;10.17;92.79;99822.47;1668427;83;21617;-84
2022/11/04 00:17:20;;;;;;;14.25;7.67;;;;;;;10.17;92.94;99817.66;1661543;85;21660;-83
2022/11/04 00:33:53;;;;;;;11.43;6.92;;;;;;;10.11;91.99;99823.13;1743539;82;21600;-81
2022/11/04 00:36:19;;;;;;;13.75;7.87;;;;;;;10.15;92.33;99818.33;1721329;83;21092;-78
2022/11/04 00:38:46;;;;;;;11.57;7.47;;;;;;;10.12;92.34;99814.19;1742213;81;21058;-82
2022/11/04 00:41:26;;;;;;;9.73;6.90;;;;;;;10.08;92.64;99817.30;1720283;81;21034;-83
2022/11/04 00:43:59;;;;;;;10.72;8.13;;;;;;;10.13;92.65;99813.67;1773431;78;21803;-81
2022/11/04 00:46:27;;;;;;;9.13;6.92;;;;;;;10.20;91.92;99822.66;1777671;80;21040;-83
2022/11/04 00:48:53;;;;;;;11.33;7.22;;;;;;;10.10;91.81;99817.97;1778260;78;21092;-83
2022/11/04 00:51:21;;;;;;;10.58;7.10;;;;;;;9.94;91.90;99811.64;1761958;80;21037;-81
2022/11/04 00:53:48;;;;;;;12.13;7.67;;;;;;;9.93;92.21;99814.44;1778934;78;20935;-82
2022/11/04 00:56:15;;;;;;;9.43;7.42;;;;;;;9.95;92.53;99810.66;1706751;82;21144;-81
2022/11/04 00:58:42;;;;;;;12.28;7.70;;;;;;;9.94;92.85;99810.31;1731770;81;21061;-81
2022/11/04 01:01:10;;;;;;;8.85;6.70;;;;;;;9.88;92.74;99810.97;1719006;81;21025;-83
2022/11/04 01:03:37;;;;;;;9.70;7.33;;;;;;;9.89;92.93;99812.64;1778304;79;22075;-82
2022/11/04 01:06:04;;;;;;;11.57;7.80;;;;;;;10.01;92.99;99814.48;1757150;80;20990;-83
2022/11/04 01:08:30;;;;;;;12.03;7.60;;;;;;;10.02;92.85;99815.66;1767189;78;21116;-80
2022/11/04 01:11:06;;;;;;;12.45;7.50;;;;;;;9.99;92.99;99806.69;1752255;78;21018;-82
2022/11/04 01:13:33;;;;;;;10.10;7.17;;;;;;;10.01;92.73;99803.87;1752541;79;21018;-81
2022/11/04 01:16:02;;;;;;;10.95;7.17;;;;;;;10.09;92.24;99799.08;1762920;79;21117;-81
2022/11/04 01:18:29;;;;;;;11.60;8.40;;;;;;;10.03;91.88;99800.05;1768420;79;21076;-79
2022/11/04 01:21:01;;;;;;;9.40;6.45;;;;;;;9.93;92.22;99803.36;1744432;80;21186;-82
2022/11/04 01:23:28;;;;;;;11.90;7.17;;;;;;;9.96;92.39;99796.38;1771192;80;20959;-80
2022/11/04 01:25:56;;;;;;;12.75;7.00;;;;;;;10.02;91.99;99801.53;1754788;80;21007;-82
2022/11/04 01:28:23;;;;;;;11.08;7.55;;;;;;;9.97;91.93;99801.21;1762037;79;21064;-81
2022/11/04 01:30:49;;;;;;;9.18;6.85;;;;;;;9.87;91.76;99800.03;1762318;79;21087;-81
2022/11/04 01:33:17;;;;;;;10.93;6.78;;;;;;;9.78;91.64;99795.19;1779260;79;21132;-83
2022/11/04 01:35:45;;;;;;;12.82;6.67;;;;;;;9.79;91.68;99786.72;1748925;79;21053;-81
2022/11/04 01:38:12;;;;;;;12.13;7.00;;;;;;;9.77;92.13;99791.36;1757815;80;21536;-81
2022/11/04 01:40:39;;;;;;;9.53;6.12;;;;;;;9.72;92.19;99797.66;1757643;79;21069;-84
2022/11/04 01:43:15;;;;;;;7.75;6.62;;;;;;;9.70;92.09;99795.67;1753706;79;21522;-82
2022/11/04 01:45:48;;;;;;;9.03;6.67;;;;;;;9.75;91.82;99806.11;1756703;79;21212;-83
2022/11/04 01:48:20;;;;;;;12.05;7.47;;;;;;;9.72;92.13;99805.63;1776804;79;21013;-83
2022/11/04 01:50:47;;;;;;;9.90;6.40;;;;;;;9.64;92.08;99806.42;1766320;80;21033;-82
2022/11/04 01:53:23;;;;;;;11.18;6.70;;;;;;;9.63;91.91;99804.25;1773404;80;21042;-86
2022/11/04 01:55:53;;;;;;;9.75;7.08;;;;;;;9.70;91.75;99804.45;1782728;78;21196;-84
2022/11/04 01:58:22;;;;;;;11.18;7.92;;;;;;;9.63;91.89;99802.09;1772503;78;21121;-85
2022/11/04 02:00:48;;;;;;;10.50;6.80;;;;;;;9.55;91.93;99796.77;1762940;80;21010;-85
2022/11/04 02:03:28;;;;;;;8.98;6.22;;;;;;;9.53;92.00;99798.75;1761598;80;21042;-83
2022/11/04 02:05:54;;;;;;;10.28;7.33;;;;;;;9.61;92.04;99804.91;1782016;79;20990;-81
2022/11/04 02:08:21;;;;;;;11.30;7.37;;;;;;;9.59;91.92;99798.93;1762149;81;21544;-81
2022/11/04 02:11:00;;;;;;;7.85;6.50;;;;;;;9.51;92.19;99796.77;1768270;80;20959;-83
2022/11/04 02:13:32;;;;;;;8.18;6.42;;;;;;;9.51;92.30;99796.26;1777637;79;21085;-81
2022/11/04 02:16:19;;;;;;;7.45;5.90;;;;;;;9.62;92.14;99795.15;1810874;78;21009;-83
2022/11/04 02:19:01;;;;;;;10.88;7.25;;;;;;;9.57;92.01;99796.94;1755525;78;21059;-82
2022/11/04 02:22:03;;;;;;;9.03;6.67;;;;;;;9.43;92.23;99791.75;1750457;81;21054;-82
2022/11/04 02:24:48;;;;;;;11.78;6.80;;;;;;;9.42;92.11;99797.20;1765360;80;21557;-82
2022/11/04 02:27:38;;;;;;;12.75;6.58;;;;;;;9.39;91.80;99793.56;1785644;78;20995;-78
2022/11/04 02:30:12;;;;;;;10.23;7.17;;;;;;;9.25;92.29;99785.22;1793768;79;20992;-82
2022/11/04 02:33:21;;;;;;;9.95;6.30;;;;;;;9.16;92.73;99777.38;1776800;78;21030;-82
2022/11/04 02:36:02;;;;;;;9.95;6.90;;;;;;;9.20;92.69;99781.38;1771590;79;21080;-81
2022/11/04 02:38:52;;;;;;;10.40;7.10;;;;;;;9.22;92.74;99776.24;1750619;80;21167;-81
2022/11/04 02:41:42;;;;;;;9.90;7.60;;;;;;;9.18;93.11;99780.20;1773136;78;20983;-79
2022/11/04 02:44:23;;;;;;;10.63;6.92;;;;;;;9.12;93.28;99780.84;1764929;78;21054;-80
2022/11/04 02:47:03;;;;;;;13.60;7.37;;;;;;;9.16;93.05;99776.06;1723177;82;21034;-81
2022/11/04 02:49:53;;;;;;;13.32;8.65;;;;;;;9.20;92.86;99772.92;1731895;82;21098;-79
2022/11/04 02:52:28;;;;;;;10.78;8.20;;;;;;;9.18;93.37;99776.23;1712949;82;21181;-80
2022/11/04 02:55:02;;;;;;;12.68;7.00;;;;;;;9.18;93.62;99774.91;1736158;82;21039;-79
2022/11/04 02:57:31;;;;;;;9.65;6.45;;;;;;;9.25;93.40;99781.23;1790435;78;21018;-81
2022/11/04 03:00:07;;;;;;;11.70;7.35;;;;;;;9.33;93.04;99782.24;1783252;78;21093;-81
2022/11/04 03:02:47;;;;;;;9.55;7.20;;;;;;;9.31;93.22;99783.75;1766210;79;21080;-83
2022/11/04 03:05:18;;;;;;;11.43;7.42;;;;;;;9.27;93.28;99784.21;1761762;80;21197;-82
2022/11/04 03:07:46;;;;;;;8.98;6.65;;;;;;;9.29;93.25;99793.69;1772222;79;20974;-82
2022/11/04 03:10:30;;;;;;;11.70;7.12;;;;;;;9.37;92.87;99793.72;1760080;79;21084;-81
2022/11/04 03:13:32;;;;;;;16.73;9.03;;;;;;;9.31;92.85;99789.05;1775169;80;21093;-81
2022/11/04 03:16:00;;;;;;;9.48;7.03;;;;;;;9.28;93.29;99789.36;1777032;79;20995;-80
2022/11/04 03:18:54;;;;;;;13.15;7.50;;;;;;;9.35;92.87;99782.91;1776231;79;21130;-80
2022/11/04 03:21:20;;;;;;;11.73;6.83;;;;;;;9.34;92.60;99787.39;1781226;80;21006;-81
2022/11/04 03:23:47;;;;;;;10.95;7.50;;;;;;;9.22;93.05;99789.50;1781183;80;21088;-81
2022/11/04 03:26:39;;;;;;;9.43;6.90;;;;;;;9.00;93.15;99770.16;1779137;79;21041;-81
2022/11/04 03:29:29;;;;;;;10.85;7.30;;;;;;;9.12;93.05;99791.44;1705923;82;21034;-82
2022/11/04 03:32:49;;;;;;;10.78;8.10;;;;;;;9.14;93.16;99781.52;1785493;78;21127;-79
2022/11/04 03:35:16;;;;;;;16.05;7.42;;;;;;;9.13;93.54;99784.31;1701222;82;21549;-81
2022/11/04 03:37:44;;;;;;;11.48;7.47;;;;;;;9.08;93.70;99791.42;1710056;82;21065;-81
2022/11/04 03:40:11;;;;;;;11.03;6.87;;;;;;;9.14;93.29;99792.62;1720804;82;21104;-83
2022/11/04 03:42:46;;;;;;;8.38;6.95;;;;;;;9.19;93.02;99785.00;1720521;81;21062;-81
2022/11/04 03:45:12;;;;;;;14.15;8.48;;;;;;;9.14;93.33;99780.69;1739860;82;21501;-82
2022/11/04 03:47:40;;;;;;;12.28;7.67;;;;;;;9.12;93.77;99786.64;1726625;82;21032;-82
2022/11/04 03:50:12;;;;;;;11.08;7.37;;;;;;;9.18;93.69;99780.20;1703116;82;21053;-80
2022/11/04 03:52:40;;;;;;;11.05;7.75;;;;;;;9.31;93.31;99785.08;1717762;82;21062;-82
2022/11/04 03:55:08;;;;;;;13.38;9.10;;;;;;;9.29;92.88;99779.58;1704625;82;21596;-82
2022/11/04 03:57:54;;;;;;;7.72;6.58;;;;;;;9.25;93.07;99781.23;1707849;82;21084;-83
2022/11/04 04:00:21;;;;;;;12.78;7.53;;;;;;;9.32;93.05;99776.12;1776027;78;21031;-83
2022/11/04 04:02:59;;;;;;;11.95;7.58;;;;;;;9.44;92.45;99778.84;1783668;80;21061;-84
2022/11/04 04:05:29;;;;;;;15.18;7.80;;;;;;;9.41;92.20;99783.62;1784397;79;20966;-83
2022/11/04 04:08:13;;;;;;;10.90;7.00;;;;;;;9.36;92.42;99783.27;1745133;81;21073;-83
2022/11/04 04:11:11;;;;;;;11.78;7.67;;;;;;;9.41;92.62;99783.12;1707212;82;21329;-80
2022/11/04 04:14:05;;;;;;;10.08;7.97;;;;;;;9.54;91.91;99784.02;1700295;82;21034;-81
2022/11/04 04:16:42;;;;;;;10.32;7.58;;;;;;;9.47;91.67;99786.96;1693491;82;21121;-81
2022/11/04 04:19:18;;;;;;;10.03;6.90;;;;;;;9.33;91.70;99783.57;1718123;81;21022;-82
2022/11/04 04:21:54;;;;;;;11.93;8.43;;;;;;;9.36;91.93;99788.56;1724541;81;21023;-82
2022/11/04 04:29:54;;;;;;;10.65;7.90;;;;;;;9.35;91.71;99795.70;1703266;82;21050;-82
2022/11/04 04:32:22;;;;;;;12.73;7.85;;;;;;;9.36;91.64;99792.04;1696469;82;21549;-83
2022/11/04 04:34:48;;;;;;;13.03;8.53;;;;;;;9.44;91.67;99793.42;1703339;82;20999;-84
2022/11/04 04:37:22;;;;;;;12.47;8.03;;;;;;;9.40;91.30;99797.36;1717482;82;21083;-83
2022/11/04 04:45:35;;;;;;;12.05;8.08;;;;;;;9.32;91.27;99799.98;1644841;85;21089;-82
2022/11/04 04:48:02;;;;;;;13.10;8.48;;;;;;;9.25;91.45;99794.50;1673647;83;21113;-81
2022/11/04 04:50:35;;;;;;;11.65;8.78;;;;;;;9.19;91.95;99790.30;1762569;78;21557;-81
2022/11/04 04:53:03;;;;;;;12.05;8.43;;;;;;;9.23;91.89;99788.52;1716369;81;21038;-81
2022/11/04 04:55:32;;;;;;;10.80;8.20;;;;;;;9.35;91.54;99794.38;1714661;82;21141;-83
2022/11/04 04:57:59;;;;;;;13.45;8.43;;;;;;;9.33;91.59;99789.73;1714560;82;20990;-81
2022/11/04 05:00:28;;;;;;;13.62;9.68;;;;;;;9.27;91.57;99793.48;1791476;78;20981;-82
2022/11/04 05:02:56;;;;;;;9.93;8.35;;;;;;;9.29;91.65;99794.16;1777133;79;21218;-83
2022/11/04 05:05:23;;;;;;;11.50;8.80;;;;;;;9.36;91.07;99796.52;1779506;80;21577;-80
2022/11/04 05:07:51;;;;;;;15.32;9.18;;;;;;;9.34;91.14;99795.34;1783601;79;21041;-82
2022/11/04 05:10:17;;;;;;;13.18;9.38;;;;;;;9.30;91.40;99803.29;1766443;80;21002;-83
2022/11/04 05:15:30;;;;;;;12.65;9.38;;;;;;;9.28;91.16;99807.91;1752452;79;21864;-81
2022/11/04 05:17:59;;;;;;;15.40;9.18;;;;;;;9.31;90.76;99808.94;1757350;80;21244;-83
2022/11/04 05:20:25;;;;;;;14.55;9.55;;;;;;;9.23;91.05;99800.45;1746656;79;21546;-84
2022/11/04 05:22:53;;;;;;;11.43;9.05;;;;;;;9.18;91.33;99809.86;1760656;79;21038;-83
2022/11/04 05:25:21;;;;;;;15.23;9.03;;;;;;;9.13;91.50;99810.81;1748720;79;21062;-84
2022/11/04 05:27:48;;;;;;;11.40;8.58;;;;;;;9.15;91.47;99812.31;1772207;80;21282;-84
2022/11/04 05:30:15;;;;;;;11.05;8.30;;;;;;;9.24;91.34;99821.16;1718031;83;21156;-82
2022/11/04 05:32:41;;;;;;;10.35;8.53;;;;;;;9.20;91.27;99822.46;1704252;83;21034;-85
2022/11/04 05:35:08;;;;;;;10.72;8.35;;;;;;;9.05;91.40;99821.70;1695857;83;21572;-84
2022/11/04 05:37:34;;;;;;;12.73;8.00;;;;;;;9.00;91.53;99823.16;1766991;80;21041;-81
2022/11/04 05:40:01;;;;;;;11.45;8.48;;;;;;;9.04;91.58;99824.03;1784841;80;21525;-80
2022/11/04 05:42:30;;;;;;;12.23;9.03;;;;;;;9.04;91.76;99829.33;1781585;79;20998;-81
2022/11/04 05:44:57;;;;;;;13.45;9.13;;;;;;;8.95;91.72;99832.08;1766757;80;21443;-81
2022/11/04 05:47:23;;;;;;;12.13;8.35;;;;;;;8.93;91.98;99835.38;1775037;80;21570;-82
2022/11/04 05:49:49;;;;;;;11.05;9.08;;;;;;;8.98;91.88;99837.05;1751242;79;21621;-83
2022/11/04 05:52:16;;;;;;;13.70;8.88;;;;;;;8.94;92.01;99835.20;1765079;80;21543;-83
2022/11/04 05:54:44;;;;;;;11.90;9.48;;;;;;;8.92;92.24;99840.33;1766600;80;21045;-80
2022/11/04 05:57:11;;;;;;;11.63;8.43;;;;;;;8.95;92.05;99836.88;1697008;82;21030;-80
2022/11/04 05:59:39;;;;;;;12.90;9.40;;;;;;;9.03;91.87;99836.10;1704819;83;21605;-83
2022/11/04 06:02:06;;;;;;;12.65;9.50;;;;;;;9.03;91.96;99838.25;1698794;81;21124;-81
2022/11/04 06:04:33;;;;;;;10.78;9.23;;;;;;;8.99;91.82;99846.17;1707534;82;21144;-82
2022/11/04 06:07:00;;;;;;;9.75;8.23;;;;;;;9.01;91.73;99848.67;1718827;82;21058;-80
2022/11/04 06:09:40;;;;;;;13.72;9.78;;;;;;;9.09;91.53;99849.22;1717812;82;21037;-80
2022/11/04 06:12:16;;;;;;;12.33;10.63;;;;;;;9.03;91.60;99847.52;1712673;82;21078;-83
2022/11/04 06:14:43;;;;;;;14.15;8.60;;;;;;;8.95;91.84;99850.63;1717443;82;21163;-84
2022/11/04 06:17:20;;;;;;;10.90;9.38;;;;;;;8.94;91.82;99847.13;1692382;83;21088;-83
2022/11/04 06:19:47;;;;;;;12.10;9.40;;;;;;;9.00;91.66;99845.20;1725542;81;20963;-86
2022/11/04 06:22:15;;;;;;;13.43;10.55;;;;;;;8.99;91.75;99847.50;1736873;82;21062;-86
2022/11/04 06:24:42;;;;;;;11.08;9.55;;;;;;;8.95;91.97;99836.88;1724152;82;21014;-85
2022/11/04 06:27:10;;;;;;;12.82;9.65;;;;;;;9.00;91.96;99835.92;1731289;82;21485;-86
2022/11/04 06:29:40;;;;;;;15.68;10.25;;;;;;;9.14;91.62;99833.70;1722552;82;21667;-83
2022/11/04 06:32:11;;;;;;;11.45;10.18;;;;;;;9.13;91.37;99836.81;1706689;82;21054;-84
2022/11/04 06:34:39;;;;;;;13.20;10.03;;;;;;;9.11;91.59;99841.45;1734351;82;21010;-85
2022/11/04 06:37:05;;;;;;;13.93;10.93;;;;;;;9.15;91.68;99845.95;1743942;80;21010;-86
2022/11/04 06:39:32;;;;;;;10.88;9.03;;;;;;;9.28;91.41;99846.86;1737832;80;21125;-84
2022/11/04 06:42:02;;;;;;;16.55;11.15;;;;;;;9.28;91.19;99850.84;1712722;82;21187;-85
2022/11/04 06:44:29;;;;;;;13.28;10.32;;;;;;;9.19;90.51;99849.47;1710592;83;20916;-85
2022/11/04 06:46:56;;;;;;;14.38;12.30;;;;;;;9.17;90.53;99853.24;1694413;83;21003;-85
2022/11/04 06:49:23;;;;;;;15.63;12.30;;;;;;;9.17;90.67;99849.27;1802080;78;21005;-85
2022/11/04 06:51:51;;;;;;;16.37;12.93;;;;;;;9.11;90.77;99850.72;1793535;78;20966;-86
2022/11/04 06:54:17;;;;;;;18.20;12.58;;;;;;;9.07;91.18;99846.72;1775047;78;21257;-85
2022/11/04 06:56:46;;;;;;;14.77;11.07;;;;;;;9.14;91.67;99849.09;1770178;80;21040;-84
2022/11/04 06:59:17;;;;;;;12.78;11.33;;;;;;;9.32;91.36;99845.55;1763135;80;21567;-85
2022/11/04 07:01:44;;;;;;;18.23;12.25;;;;;;;9.42;91.77;99840.95;1775087;79;21057;-84
2022/11/04 07:04:11;;;;;;;13.62;10.70;;;;;;;9.48;91.39;99846.13;1711186;82;21122;-84
2022/11/04 07:06:42;;;;;;;13.13;10.72;;;;;;;9.53;91.19;99840.69;1730113;81;21152;-84
2022/11/04 07:09:10;;;;;;;14.53;11.83;;;;;;;9.72;91.39;99852.05;1715554;81;21049;-84
2022/11/04 07:11:37;;;;;;;17.70;14.03;;;;;;;9.78;90.64;99850.08;1700775;81;21046;-86
2022/11/04 07:14:04;;;;;;;17.48;13.55;;;;;;;9.80;91.17;99851.56;1701208;83;21096;-84
2022/11/04 07:16:30;;;;;;;15.23;12.07;;;;;;;9.88;90.36;99851.27;1770220;80;20966;-82
2022/11/04 07:18:58;;;;;;;15.72;11.97;;;;;;;9.96;89.67;99846.80;1780989;78;21118;-83
2022/11/04 07:21:24;;;;;;;13.53;11.30;;;;;;;9.96;89.46;99848.13;1778728;79;21002;-82
2022/11/04 07:23:52;;;;;;;12.95;10.72;;;;;;;9.91;89.20;99848.28;1788053;78;21013;-84
2022/11/04 07:29:42;;;;;;;15.70;11.30;;;;;;;9.87;88.85;99842.95;1746223;78;21054;-88
2022/11/04 07:32:08;;;;;;;13.53;11.68;;;;;;;9.81;89.27;99843.95;1787847;78;21155;-86
2022/11/04 07:34:34;;;;;;;11.68;10.48;;;;;;;9.73;89.29;99845.23;1768183;78;20998;-87
2022/11/04 07:37:01;;;;;;;14.00;11.30;;;;;;;9.75;89.37;99847.73;1775240;79;21024;-88
2022/11/04 07:39:28;;;;;;;14.45;11.05;;;;;;;9.81;89.01;99845.76;1774063;80;21072;-89
2022/11/04 07:41:55;;;;;;;12.98;10.45;;;;;;;9.75;89.10;99842.42;1784249;80;20985;-89
2022/11/04 07:44:25;;;;;;;17.02;11.78;;;;;;;9.73;89.57;99845.73;1785469;79;21588;-89
2022/11/04 07:46:51;;;;;;;13.00;10.23;;;;;;;9.80;89.64;99845.44;1789002;80;21017;-89
2022/11/04 07:49:18;;;;;;;16.57;10.88;;;;;;;9.94;89.58;99846.14;1789457;80;20958;-89
2022/11/04 07:51:47;;;;;;;11.22;10.13;;;;;;;10.01;90.05;99839.70;1783824;78;20986;-87
2022/11/04 07:54:14;;;;;;;13.03;10.50;;;;;;;10.04;89.73;99841.54;1789757;80;21370;-87
2022/11/04 07:56:40;;;;;;;12.98;10.72;;;;;;;10.02;88.98;99839.55;1787752;80;21490;-89
2022/11/04 07:59:07;;;;;;;12.80;10.25;;;;;;;10.10;88.53;99837.88;1784029;78;21061;-86
2022/11/04 08:01:34;;;;;;;14.80;11.05;;;;;;;10.12;88.07;99837.22;1767034;78;21034;-87
2022/11/04 08:04:00;;;;;;;12.58;10.82;;;;;;;10.04;88.41;99836.70;1771647;78;21498;-87
2022/11/04 08:06:27;;;;;;;12.40;10.00;;;;;;;10.02;89.21;99831.59;1779818;79;21038;-87
2022/11/04 08:08:57;;;;;;;10.60;9.23;;;;;;;10.13;89.36;99829.10;1762131;80;21142;-87
2022/11/04 08:11:24;;;;;;;11.28;9.40;;;;;;;10.29;88.28;99835.43;1774147;79;21037;-88
2022/11/04 08:13:54;;;;;;;11.28;9.45;;;;;;;10.30;87.69;99837.11;1783093;80;21026;-87
2022/11/04 08:16:22;;;;;;;11.48;9.75;;;;;;;10.22;87.43;99842.73;1781145;80;21002;-87
2022/11/04 08:19:00;;;;;;;10.20;7.83;;;;;;;10.14;87.44;99841.39;1782334;78;21073;-87
2022/11/04 08:21:19;;;;;;;8.70;7.50;;;;;;;10.13;87.38;99835.73;1771117;78;20998;-87
2022/11/04 08:23:50;;;;;;;10.50;9.40;;;;;;;10.18;87.01;99837.92;1796802;78;21006;-86
2022/11/04 08:28:00;;;;;;;12.53;8.80;;;;;;;10.16;86.92;99835.90;1852795;75;28075;-86
2022/11/04 08:30:26;;;;;;;12.53;9.83;;;;;;;10.09;86.77;99842.88;1832734;77;21161;-84
2022/11/04 08:32:53;;;;;;;12.58;10.08;;;;;;;10.10;86.78;99839.20;1773443;80;21118;-84
2022/11/04 08:35:19;;;;;;;12.33;11.03;;;;;;;10.04;87.42;99841.54;1775718;80;20986;-87
2022/11/04 08:37:46;;;;;;;12.13;10.93;;;;;;;10.00;87.65;99844.16;1760554;81;22127;-87
2022/11/04 08:40:12;;;;;;;11.25;10.08;;;;;;;10.03;87.57;99851.81;1755794;81;21057;-88
2022/11/04 08:42:39;;;;;;;12.35;11.10;;;;;;;10.11;87.47;99846.20;1746504;81;21497;-87
2022/11/04 08:45:08;;;;;;;11.68;10.45;;;;;;;10.09;87.46;99841.04;1758281;80;21501;-86
2022/11/04 08:47:35;;;;;;;13.05;10.88;;;;;;;10.09;87.80;99842.88;1748107;80;21017;-88
2022/11/04 08:50:01;;;;;;;11.00;9.08;;;;;;;10.12;88.19;99838.55;1758222;81;21002;-87
2022/11/04 08:52:29;;;;;;;11.65;10.38;;;;;;;10.28;88.03;99837.27;1763555;80;20990;-87
2022/11/04 08:54:55;;;;;;;10.72;9.28;;;;;;;10.46;88.06;99834.48;1757314;80;21038;-85
2022/11/04 08:57:22;;;;;;;11.40;10.20;;;;;;;10.55;87.86;99836.66;1739811;81;21152;-87
2022/11/04 08:59:49;;;;;;;12.68;10.38;;;;;;;10.60;87.59;99832.99;1752690;80;20979;-88
2022/11/04 09:02:17;;;;;;;12.13;8.73;;;;;;;10.60;87.25;99835.64;1754209;81;21506;-86
2022/11/04 09:04:44;;;;;;;14.38;10.93;;;;;;;10.66;86.49;99834.16;1756958;81;21080;-88
2022/11/04 09:07:10;;;;;;;18.50;13.70;;;;;;;10.71;85.55;99838.48;1759512;80;21037;-87
2022/11/04 09:09:39;;;;;;;17.05;14.75;;;;;;;10.59;85.52;99838.81;1746525;80;21155;-87
2022/11/04 09:12:09;;;;;;;15.95;14.15;;;;;;;10.44;85.15;99839.13;1712348;80;21054;-87
2022/11/04 09:14:36;;;;;;;17.62;13.70;;;;;;;10.24;85.25;99838.59;1760316;80;20968;-86
2022/11/04 09:17:03;;;;;;;15.23;13.60;;;;;;;10.15;85.90;99840.89;1752236;80;20994;-87
2022/11/04 09:19:30;;;;;;;16.97;13.90;;;;;;;10.04;86.38;99842.87;1746130;79;21116;-86
2022/11/04 09:21:56;;;;;;;18.45;13.72;;;;;;;9.94;86.64;99842.16;1735368;80;21169;-86
2022/11/04 09:24:23;;;;;;;15.13;12.65;;;;;;;9.90;87.09;99840.81;1732365;81;21007;-85
2022/11/04 09:26:49;;;;;;;17.65;13.75;;;;;;;9.94;87.24;99834.19;1757246;80;21076;-86
2022/11/04 09:29:16;;;;;;;17.70;13.95;;;;;;;9.91;87.68;99837.19;1758934;81;20994;-86
2022/11/04 09:31:43;;;;;;;17.42;14.10;;;;;;;9.87;87.86;99829.69;1762789;81;21040;-87
2022/11/04 09:34:10;;;;;;;18.85;12.60;;;;;;;9.83;88.06;99828.70;1762789;81;21153;-87
2022/11/04 09:36:38;;;;;;;18.37;12.95;;;;;;;9.93;88.06;99825.91;1764414;81;21001;-86
2022/11/04 09:39:04;;;;;;;16.85;13.38;;;;;;;10.00;88.29;99830.06;1765301;81;21084;-87
2022/11/04 09:42:05;;;;;;;15.70;12.55;;;;;;;10.03;88.74;99830.58;1760676;81;21134;-86
2022/11/04 09:45:10;;;;;;;13.32;11.65;;;;;;;10.06;88.21;99829.91;1757971;80;21001;-86
2022/11/04 09:47:39;;;;;;;15.65;12.13;;;;;;;10.10;87.33;99828.59;1744277;81;21612;-86
2022/11/04 09:50:09;;;;;;;16.00;13.00;;;;;;;10.08;86.44;99828.75;1751163;80;21018;-85
2022/11/04 09:52:40;;;;;;;15.85;12.55;;;;;;;9.97;86.98;99835.21;1762449;81;20982;-87
2022/11/04 09:55:30;;;;;;;13.80;11.57;;;;;;;9.90;87.24;99829.38;1747685;80;20980;-86
2022/11/04 09:57:57;;;;;;;15.28;12.00;;;;;;;9.91;87.47;99837.19;1748440;80;20968;-88
2022/11/04 10:00:24;;;;;;;14.63;11.20;;;;;;;9.99;87.08;99839.86;1764830;79;21070;-86
2022/11/04 10:03:03;;;;;;;14.00;12.50;;;;;;;9.94;86.94;99835.52;1764027;81;21053;-85
2022/11/04 10:06:06;;;;;;;16.73;11.53;;;;;;;9.86;87.36;99833.36;1756387;81;21045;-85
2022/11/04 10:09:03;;;;;;;15.88;11.25;;;;;;;9.85;87.78;99833.86;1762442;80;20983;-85
2022/11/04 10:11:36;;;;;;;16.25;11.38;;;;;;;9.84;86.47;99833.51;1763959;78;20958;-86
2022/11/04 10:14:34;;;;;;;15.15;11.08;;;;;;;9.77;86.02;99832.01;1747235;81;21104;-86
2022/11/04 10:17:41;;;;;;;13.05;10.25;;;;;;;9.61;86.28;99824.80;1757408;81;21057;-85
2022/11/04 10:20:25;;;;;;;12.45;10.25;;;;;;;9.49;86.87;99823.94;1747160;81;21025;-86
2022/11/04 10:23:12;;;;;;;12.18;10.35;;;;;;;9.53;87.20;99817.31;1745952;80;21847;-86
2022/11/04 10:26:02;;;;;;;16.87;11.33;;;;;;;9.58;87.55;99821.16;1757572;80;21552;-84
2022/11/04 10:28:39;;;;;;;15.98;10.35;;;;;;;9.57;87.44;99817.33;1762108;80;21250;-86
2022/11/04 10:31:07;;;;;;;12.23;10.18;;;;;;;9.62;87.37;99814.53;1745847;81;21017;-86
2022/11/04 10:33:37;;;;;;;12.15;10.65;;;;;;;9.75;87.18;99811.91;1748206;80;21077;-85
2022/11/04 10:36:07;;;;;;;13.20;10.75;;;;;;;9.77;87.30;99816.56;1811113;78;21034;-85
2022/11/04 10:38:52;;;;;;;13.48;10.35;;;;;;;9.76;87.40;99817.06;1770512;78;21002;-84
2022/11/04 10:41:32;;;;;;;12.45;11.08;;;;;;;9.83;87.20;99811.93;1809889;78;21116;-87
2022/11/04 10:44:10;;;;;;;14.35;12.65;;;;;;;9.87;85.63;99818.60;1747431;78;20999;-88
2022/11/04 10:46:45;;;;;;;13.60;12.15;;;;;;;9.67;85.87;99810.06;1768433;77;21006;-87
2022/11/04 10:49:52;;;;;;;13.78;11.65;;;;;;;9.51;86.87;99809.52;1757380;81;21021;-87
2022/11/04 10:52:18;;;;;;;14.70;12.13;;;;;;;9.51;86.75;99810.84;1752093;81;20938;-88
2022/11/04 10:54:47;;;;;;;16.65;13.70;;;;;;;9.47;87.19;99810.83;1757520;81;21211;-89
2022/11/04 10:57:22;;;;;;;14.45;12.93;;;;;;;9.36;87.67;99803.15;1756670;81;21033;-88
2022/11/04 10:59:58;;;;;;;15.25;12.45;;;;;;;9.31;88.26;99793.50;1763133;81;21055;-89
2022/11/04 11:02:48;;;;;;;16.80;13.00;;;;;;;9.36;88.08;99798.67;1760968;78;21152;-87
2022/11/04 11:05:22;;;;;;;15.55;13.83;;;;;;;9.36;88.15;99799.17;1725482;79;21010;-88
2022/11/04 11:07:56;;;;;;;13.18;11.80;;;;;;;9.23;88.47;99788.52;1734865;79;21058;-88
2022/11/04 11:10:26;;;;;;;;;;;;;;;9.20;88.81;99791.98;1744193;81;21105;-88
2022/11/04 11:13:06;;;;;;;12.75;11.38;;;;;;;9.25;88.87;99790.52;1757477;81;20206;-87
2022/11/04 11:15:35;;;;;;;15.38;11.97;;;;;;;9.23;88.71;99792.50;1725229;81;21080;-88
2022/11/04 11:18:20;;;;;;;13.53;10.18;;;;;;;9.19;88.73;99789.83;1761791;78;20986;-85
2022/11/04 11:20:53;;;;;;;11.48;10.28;;;;;;;9.25;88.85;99785.69;1733744;81;21231;-86
2022/11/04 11:23:38;;;;;;;12.18;10.13;;;;;;;9.38;87.79;99788.73;1725463;81;21074;-87
2022/11/04 11:26:08;;;;;;;15.13;10.82;;;;;;;9.33;87.70;99784.42;1761819;81;21040;-87
2022/11/04 11:28:39;;;;;;;12.82;10.30;;;;;;;9.23;87.78;99781.89;1761271;79;21466;-86
2022/11/04 11:31:15;;;;;;;11.15;9.83;;;;;;;9.27;87.82;99780.23;1722171;81;21617;-85
2022/11/04 11:33:56;;;;;;;15.05;12.00;;;;;;;9.34;87.74;99782.09;1752016;80;21096;-85
2022/11/04 11:36:28;;;;;;;13.75;10.72;;;;;;;9.38;87.69;99787.91;1752798;80;21073;-86
2022/11/04 11:39:15;;;;;;;11.60;10.28;;;;;;;9.36;87.73;99784.09;1761071;81;21022;-87
2022/11/04 11:42:00;;;;;;;14.00;10.08;;;;;;;9.41;87.56;99780.47;1767311;80;21089;-89
2022/11/04 11:44:36;;;;;;;12.23;11.12;;;;;;;9.58;87.44;99782.70;1765439;81;21040;-87
2022/11/04 11:47:05;;;;;;;10.15;9.05;;;;;;;9.67;87.58;99782.22;1756852;80;21574;-87
2022/11/04 11:49:35;;;;;;;11.95;7.65;;;;;;;9.67;85.72;99778.73;1763760;80;21046;-87
2022/11/04 11:52:35;;;;;;;9.55;8.55;;;;;;;9.70;85.37;99777.92;1774237;78;21025;-86
2022/11/04 11:55:31;;;;;;;10.23;9.00;;;;;;;9.76;85.02;99779.92;1765344;79;21069;-87
2022/11/04 11:58:44;;;;;;;9.50;7.60;;;;;;;9.77;84.87;99776.77;1743777;81;20958;-86
2022/11/04 12:01:45;;;;;;;8.95;7.95;;;;;;;9.73;83.88;99774.93;1770893;81;21152;-86
2022/11/04 12:04:15;;;;;;;14.60;11.00;;;;;;;9.75;83.40;99774.27;1752425;81;21210;-86
2022/11/04 12:06:55;;;;;;;11.43;10.08;;;;;;;9.64;84.48;99774.09;1760847;81;20944;-86
2022/11/04 12:09:33;;;;;;;11.57;10.23;;;;;;;9.54;85.10;99770.75;1753481;81;21068;-83
2022/11/04 12:12:36;;;;;;;12.20;10.50;;;;;;;9.50;84.89;99770.71;1760941;80;21363;-86
2022/11/04 12:15:30;;;;;;;16.65;14.53;;;;;;;9.50;84.57;99768.06;1764064;80;21138;-86
2022/11/04 12:18:08;;;;;;;14.70;12.45;;;;;;;9.34;85.02;99762.20;1743216;80;21029;-86
2022/11/04 12:20:52;;;;;;;12.55;10.68;;;;;;;9.28;85.60;99767.33;1759357;80;21061;-87
2022/11/04 12:23:50;;;;;;;12.37;11.08;;;;;;;9.34;85.98;99767.52;1755339;80;21081;-87
2022/11/04 12:26:43;;;;;;;12.20;10.72;;;;;;;9.47;85.75;99768.40;1736652;81;21006;-87
2022/11/04 12:29:33;;;;;;;11.38;10.03;;;;;;;9.49;85.07;99770.39;1764385;80;21775;-87
2022/11/04 12:32:44;;;;;;;9.88;8.88;;;;;;;9.41;85.12;99770.38;1772051;79;21051;-85
2022/11/04 12:38:52;;;;;;;12.70;11.22;;;;;;;9.39;84.68;99767.05;1771152;78;20982;-86